Terminal Aerodrome Forecast
Issued by NWS

Home | Current Version | Previous Version | Text Only | Print | Product List | Glossary On
Versions: 1 2 3 4 5 6 7 8 9 10 11 12 13 14 15
930
FTUS44 KLZK 261720
TAFHOT
TAF
KHOT 261720Z 2618/2718 15004KT P6SM SCT050
      TEMPO 2620/2624 BKN050
     FM270900 VRB03KT 5SM BR SCT050 OVC100
     FM271400 07007KT P6SM OVC050=

USA.gov is the U.S. government's official web portal to all federal, state and local government web resources and services.